createdAt,value
2022-10-28T00:01:18.935Z,13.30
2022-10-28T00:03:50.462Z,13.20
2022-10-28T00:06:22.074Z,13.10
2022-10-28T00:08:49.831Z,13.10
2022-10-28T00:28:47.510Z,13.10
2022-10-28T00:31:15.443Z,13.10
2022-10-28T00:33:42.380Z,13.10
2022-10-28T00:36:08.956Z,13.10
2022-10-28T00:38:35.495Z,13.10
2022-10-28T00:41:05.626Z,13.10
2022-10-28T00:43:42.390Z,13.10
2022-10-28T00:46:31.177Z,13.20
2022-10-28T00:49:05.747Z,13.20
2022-10-28T00:51:33.478Z,13.20
2022-10-28T00:54:02.610Z,13.20
2022-10-28T00:56:31.360Z,13.30
2022-10-28T00:59:02.510Z,13.30
2022-10-28T01:01:32.975Z,13.30
2022-10-28T01:03:59.947Z,13.40
2022-10-28T01:06:30.767Z,13.30
2022-10-28T01:09:04.672Z,13.30
2022-10-28T01:11:43.933Z,13.30
2022-10-28T01:14:25.297Z,13.20
2022-10-28T01:17:12.320Z,13.20
2022-10-28T01:19:57.489Z,13.20
2022-10-28T01:22:43.010Z,13.20
2022-10-28T01:25:29.550Z,13.10
2022-10-28T01:28:14.617Z,13.10
2022-10-28T01:30:50.327Z,13.10
2022-10-28T01:33:23.038Z,13.10
2022-10-28T01:35:54.588Z,13.10
2022-10-28T01:38:32.343Z,13.10
2022-10-28T01:41:07.547Z,13.10
2022-10-28T01:43:38.509Z,13.00
2022-10-28T01:46:16.592Z,13.00
2022-10-28T01:48:45.799Z,13.00
2022-10-28T01:51:15.407Z,13.10
2022-10-28T01:53:46.605Z,13.10
2022-10-28T01:56:30.804Z,13.20
2022-10-28T01:59:00.454Z,13.20
2022-10-28T02:01:28.101Z,13.30
2022-10-28T02:03:56.615Z,13.30
2022-10-28T02:06:30.925Z,13.30
2022-10-28T02:09:21.657Z,13.40
2022-10-28T02:12:05.730Z,13.40
2022-10-28T02:14:38.235Z,13.40
2022-10-28T02:17:23.686Z,13.40
2022-10-28T02:20:02.103Z,13.40
2022-10-28T02:22:37.204Z,13.40
2022-10-28T02:25:28.718Z,13.40
2022-10-28T02:28:06.595Z,13.40
2022-10-28T02:30:51.163Z,13.40
2022-10-28T02:33:21.221Z,13.30
2022-10-28T02:35:50.477Z,13.40
2022-10-28T02:38:22.700Z,13.40
2022-10-28T02:43:22.197Z,13.30
2022-10-28T02:45:51.141Z,13.40
2022-10-28T02:48:47.291Z,13.40
2022-10-28T02:51:19.379Z,13.40
2022-10-28T02:54:05.480Z,13.40
2022-10-28T02:56:40.870Z,13.50
2022-10-28T02:59:11.425Z,13.50
2022-10-28T03:01:38.618Z,13.50
2022-10-28T03:04:05.531Z,13.40
2022-10-28T03:06:35.763Z,13.50
2022-10-28T03:09:02.721Z,13.50
2022-10-28T03:11:29.215Z,13.40
2022-10-28T03:13:58.025Z,13.40
2022-10-28T03:16:25.959Z,13.40
2022-10-28T03:18:52.542Z,13.40
2022-10-28T03:21:24.140Z,13.40
2022-10-28T03:23:53.903Z,13.40
2022-10-28T03:26:20.982Z,13.40
2022-10-28T03:28:51.920Z,13.40
2022-10-28T03:31:18.390Z,13.40
2022-10-28T03:33:49.018Z,13.40
2022-10-28T03:36:18.774Z,13.50
2022-10-28T03:38:45.197Z,13.50
2022-10-28T03:41:11.930Z,13.50
2022-10-28T03:43:38.579Z,13.50
2022-10-28T03:46:05.250Z,13.60
2022-10-28T03:48:31.829Z,13.60
2022-10-28T03:51:01.348Z,13.60
2022-10-28T03:53:31.506Z,13.70
2022-10-28T03:55:58.923Z,13.70
2022-10-28T03:58:25.778Z,13.70
2022-10-28T04:00:52.959Z,13.70
2022-10-28T04:03:24.813Z,13.70
2022-10-28T04:05:51.630Z,13.70
2022-10-28T04:08:20.769Z,13.70
2022-10-28T04:10:52.828Z,13.70
2022-10-28T04:13:23.637Z,13.70
2022-10-28T04:15:51.822Z,13.70
2022-10-28T04:18:23.299Z,13.70
2022-10-28T04:20:53.153Z,13.70
2022-10-28T04:23:24.850Z,13.70
2022-10-28T04:26:00.094Z,13.70
2022-10-28T04:28:27.087Z,13.60
2022-10-28T04:30:55.957Z,13.60
2022-10-28T04:33:22.469Z,13.60
2022-10-28T04:35:50.168Z,13.70
2022-10-28T04:38:25.870Z,13.60
2022-10-28T04:40:58.246Z,13.60
2022-10-28T04:43:25.099Z,13.60
2022-10-28T04:45:51.816Z,13.60
2022-10-28T04:48:23.085Z,13.60
2022-10-28T04:50:54.018Z,13.60
2022-10-28T04:53:24.990Z,13.60
2022-10-28T04:55:56.469Z,13.60
2022-10-28T04:58:29.233Z,13.60
2022-10-28T05:00:57.672Z,13.60
2022-10-28T05:03:30.167Z,13.60
2022-10-28T05:05:57.254Z,13.50
2022-10-28T05:08:27.025Z,13.50
2022-10-28T05:10:53.799Z,13.50
2022-10-28T05:13:21.912Z,13.50
2022-10-28T05:15:50.939Z,13.50
2022-10-28T05:18:21.925Z,13.50
2022-10-28T05:20:54.231Z,13.50
2022-10-28T05:23:23.715Z,13.50
2022-10-28T05:31:42.847Z,13.40
2022-10-28T05:34:13.447Z,13.40
2022-10-28T05:36:42.527Z,13.40
2022-10-28T05:39:09.114Z,13.40
2022-10-28T05:41:38.865Z,13.50
2022-10-28T05:44:06.663Z,13.40
2022-10-28T05:46:33.180Z,13.50
2022-10-28T05:48:59.713Z,13.40
2022-10-28T05:51:53.754Z,13.30
2022-10-28T05:54:20.456Z,13.20
2022-10-28T05:56:46.978Z,13.10
2022-10-28T05:59:18.978Z,13.00
2022-10-28T06:01:50.849Z,12.90
2022-10-28T06:04:17.532Z,12.90
2022-10-28T06:06:46.247Z,12.80
2022-10-28T06:09:42.662Z,12.80
2022-10-28T06:12:08.560Z,12.80
2022-10-28T06:14:37.195Z,12.70
2022-10-28T06:17:07.507Z,12.60
2022-10-28T06:19:33.994Z,12.60
2022-10-28T06:22:05.594Z,12.60
2022-10-28T06:24:32.839Z,12.60
2022-10-28T06:27:01.763Z,12.60
2022-10-28T06:29:29.983Z,12.60
2022-10-28T06:32:00.774Z,12.60
2022-10-28T06:34:27.557Z,12.70
2022-10-28T06:36:54.014Z,12.70
2022-10-28T06:39:20.715Z,12.70
2022-10-28T06:41:49.245Z,12.70
2022-10-28T06:44:21.535Z,12.70
2022-10-28T06:46:51.531Z,12.70
2022-10-28T06:49:18.045Z,12.70
2022-10-28T06:51:44.595Z,12.70
2022-10-28T06:54:13.338Z,12.80
2022-10-28T06:56:39.856Z,12.90
2022-10-28T06:59:06.977Z,13.00
2022-10-28T07:01:33.685Z,13.00
2022-10-28T07:04:02.383Z,13.10
2022-10-28T07:06:28.919Z,13.10
2022-10-28T07:08:56.656Z,13.20
2022-10-28T07:11:23.546Z,13.20
2022-10-28T07:13:54.953Z,13.30
2022-10-28T07:16:23.859Z,13.30
2022-10-28T07:18:59.830Z,13.30
2022-10-28T07:21:29.117Z,13.30
2022-10-28T07:23:55.845Z,13.30
2022-10-28T07:26:25.459Z,13.40
2022-10-28T07:28:53.253Z,13.40
2022-10-28T07:31:20.627Z,13.40
2022-10-28T07:33:51.814Z,13.50
2022-10-28T07:36:21.340Z,13.40
2022-10-28T07:38:48.930Z,13.40
2022-10-28T07:41:18.789Z,13.50
2022-10-28T07:43:45.606Z,13.50
2022-10-28T07:46:14.568Z,13.50
2022-10-28T07:48:42.314Z,13.50
2022-10-28T07:51:13.266Z,13.50
2022-10-28T07:53:40.174Z,13.50
2022-10-28T07:56:13.034Z,13.50
2022-10-28T07:58:40.150Z,13.50
2022-10-28T08:01:07.829Z,13.50
2022-10-28T08:03:48.034Z,13.50
2022-10-28T08:06:19.214Z,13.50
2022-10-28T08:08:48.270Z,13.50
2022-10-28T08:11:18.371Z,13.60
2022-10-28T08:13:47.724Z,13.60
2022-10-28T08:16:23.393Z,13.60
2022-10-28T08:18:49.875Z,13.70
2022-10-28T08:21:22.705Z,13.70
2022-10-28T08:23:55.377Z,13.80
2022-10-28T08:26:24.856Z,13.80
2022-10-28T08:34:39.416Z,13.90
2022-10-28T08:37:09.415Z,13.90
2022-10-28T08:39:36.271Z,14.00
2022-10-28T08:42:24.038Z,14.00
2022-10-28T08:44:50.507Z,14.00
2022-10-28T08:47:23.180Z,14.10
2022-10-28T08:49:56.645Z,14.10
2022-10-28T08:52:28.655Z,14.20
2022-10-28T08:55:00.035Z,14.30
2022-10-28T08:57:34.173Z,14.40
2022-10-28T09:00:07.981Z,14.40
2022-10-28T09:02:49.239Z,14.50
2022-10-28T09:05:19.699Z,14.60
2022-10-28T09:07:46.480Z,14.70
2022-10-28T09:10:20.270Z,14.70
2022-10-28T09:13:13.750Z,14.80
2022-10-28T09:15:55.625Z,14.80
2022-10-28T09:18:41.300Z,14.90
2022-10-28T09:21:21.618Z,15.00
2022-10-28T09:23:56.356Z,15.00
2022-10-28T09:26:23.824Z,15.10
2022-10-28T09:31:52.377Z,15.20
2022-10-28T09:34:23.997Z,15.30
2022-10-28T09:36:55.561Z,15.40
2022-10-28T09:39:27.628Z,15.40
2022-10-28T09:41:56.515Z,15.40
2022-10-28T09:44:45.238Z,15.50
2022-10-28T09:47:18.620Z,15.50
2022-10-28T09:49:46.160Z,15.60
2022-10-28T09:52:15.301Z,15.60
2022-10-28T09:54:48.185Z,15.70
2022-10-28T09:57:17.250Z,15.80
2022-10-28T09:59:44.496Z,15.90
2022-10-28T10:02:30.608Z,16.00
2022-10-28T10:04:58.030Z,16.10
2022-10-28T10:07:36.168Z,16.20
2022-10-28T10:10:16.823Z,16.30
2022-10-28T10:12:46.393Z,16.40
2022-10-28T10:15:18.971Z,16.50
2022-10-28T10:17:47.081Z,16.60
2022-10-28T10:20:15.093Z,16.70
2022-10-28T10:22:45.017Z,16.80
2022-10-28T10:25:22.394Z,16.90
2022-10-28T10:28:03.449Z,17.00
2022-10-28T10:30:30.579Z,17.20
2022-10-28T10:32:57.299Z,17.40
2022-10-28T10:35:27.798Z,17.60
2022-10-28T10:37:55.883Z,17.70
2022-10-28T10:40:22.422Z,17.80
2022-10-28T10:43:10.079Z,17.80
2022-10-28T10:45:52.487Z,17.90
2022-10-28T10:48:18.933Z,17.90
2022-10-28T10:50:50.438Z,17.90
2022-10-28T10:53:25.986Z,18.00
2022-10-28T10:55:54.372Z,18.00
2022-10-28T10:58:23.494Z,18.00
2022-10-28T11:00:51.245Z,18.10
2022-10-28T11:03:26.681Z,18.20
2022-10-28T11:06:11.504Z,18.30
2022-10-28T11:08:43.408Z,18.40
2022-10-28T11:11:09.768Z,18.60
2022-10-28T11:13:36.224Z,18.90
2022-10-28T11:16:04.056Z,19.10
2022-10-28T11:18:43.998Z,19.30
2022-10-28T11:21:25.883Z,19.40
2022-10-28T11:24:06.997Z,19.50
2022-10-28T11:26:36.987Z,19.60
2022-10-28T11:29:06.919Z,19.70
2022-10-28T11:32:02.637Z,19.70
2022-10-28T11:34:47.800Z,19.80
2022-10-28T11:37:32.976Z,20.10
2022-10-28T11:40:07.317Z,20.40
2022-10-28T11:42:55.870Z,20.80
2022-10-28T11:45:50.393Z,21.00
2022-10-28T11:48:36.909Z,21.20
2022-10-28T11:51:25.594Z,21.40
2022-10-28T11:54:01.102Z,21.40
2022-10-28T11:56:32.727Z,21.50
2022-10-28T11:59:20.240Z,21.60
2022-10-28T12:01:49.834Z,21.70
2022-10-28T12:04:39.354Z,21.80
2022-10-28T12:07:18.292Z,21.80
2022-10-28T12:09:57.757Z,22.10
2022-10-28T12:12:36.338Z,22.40
2022-10-28T12:15:14.344Z,22.90
2022-10-28T12:17:47.082Z,23.20
2022-10-28T12:20:16.753Z,23.50
2022-10-28T12:22:48.769Z,23.50
2022-10-28T12:25:26.145Z,23.70
2022-10-28T12:28:00.174Z,23.90
2022-10-28T12:30:31.306Z,24.20
2022-10-28T12:33:06.598Z,24.40
2022-10-28T12:35:38.345Z,24.70
2022-10-28T12:38:12.051Z,24.90
2022-10-28T12:40:43.039Z,25.20
2022-10-28T12:43:14.339Z,25.40
2022-10-28T12:45:41.431Z,25.40
2022-10-28T12:48:21.496Z,25.40
2022-10-28T12:50:47.910Z,25.40
2022-10-28T12:53:24.589Z,25.50
2022-10-28T12:55:54.905Z,25.60
2022-10-28T12:58:27.430Z,25.80
2022-10-28T13:01:11.715Z,25.80
2022-10-28T13:03:38.944Z,26.00
2022-10-28T13:06:24.438Z,26.30
2022-10-28T13:11:34.330Z,26.50
2022-10-28T13:14:17.639Z,26.50
2022-10-28T13:17:03.173Z,26.50
2022-10-28T13:19:32.604Z,26.60
2022-10-28T13:22:08.492Z,26.50
2022-10-28T13:24:40.999Z,26.50
2022-10-28T13:27:11.521Z,26.60
2022-10-28T13:29:41.455Z,26.70
2022-10-28T13:32:27.892Z,26.90
2022-10-28T13:34:57.295Z,27.00
2022-10-28T13:37:34.512Z,27.20
2022-10-28T13:40:01.037Z,27.20
2022-10-28T13:42:42.138Z,27.20
2022-10-28T13:45:29.732Z,27.20
2022-10-28T13:48:14.922Z,27.30
2022-10-28T13:50:42.519Z,27.40
2022-10-28T13:53:24.478Z,27.30
2022-10-28T13:55:56.651Z,27.20
2022-10-28T13:58:24.529Z,27.10
2022-10-28T14:00:53.854Z,27.00
2022-10-28T14:03:26.611Z,26.90
2022-10-28T14:05:55.365Z,26.70
2022-10-28T14:08:25.858Z,26.60
2022-10-28T14:11:01.233Z,26.40
2022-10-28T14:13:30.504Z,26.30
2022-10-28T14:16:15.986Z,26.20
2022-10-28T14:18:53.187Z,26.10
2022-10-28T14:21:23.991Z,26.10
2022-10-28T14:24:07.433Z,26.10
2022-10-28T14:26:54.091Z,26.00
2022-10-28T14:29:28.806Z,25.90
2022-10-28T14:31:56.635Z,25.80
2022-10-28T14:34:31.587Z,25.60
2022-10-28T14:37:05.224Z,25.60
2022-10-28T14:39:36.234Z,25.60
2022-10-28T14:48:27.580Z,25.10
2022-10-28T14:50:55.107Z,25.00
2022-10-28T14:53:27.620Z,24.80
2022-10-28T14:56:02.997Z,24.70
2022-10-28T14:58:42.313Z,24.50
2022-10-28T15:01:20.220Z,24.40
2022-10-28T15:03:49.244Z,24.20
2022-10-28T15:06:36.562Z,24.00
2022-10-28T15:09:05.343Z,23.80
2022-10-28T15:11:33.412Z,23.80
2022-10-28T15:14:11.896Z,23.70
2022-10-28T15:16:45.097Z,23.70
2022-10-28T15:19:13.913Z,23.60
2022-10-28T15:21:43.335Z,23.50
2022-10-28T15:24:15.016Z,23.40
2022-10-28T15:26:42.088Z,23.30
2022-10-28T15:29:09.079Z,23.10
2022-10-28T15:31:55.661Z,23.00
2022-10-28T15:34:24.408Z,22.80
2022-10-28T15:36:52.667Z,22.80
2022-10-28T15:39:19.315Z,22.70
2022-10-28T15:41:51.572Z,22.60
2022-10-28T15:44:23.927Z,22.40
2022-10-28T15:46:56.292Z,22.40
2022-10-28T15:49:49.022Z,22.20
2022-10-28T15:52:22.769Z,22.00
2022-10-28T15:55:41.599Z,21.80
2022-10-28T15:58:19.386Z,21.60
2022-10-28T16:00:55.883Z,21.40
2022-10-28T16:03:41.097Z,21.30
2022-10-28T16:06:44.284Z,21.20
2022-10-28T16:09:24.462Z,21.20
2022-10-28T16:11:52.717Z,21.10
2022-10-28T16:14:30.435Z,21.00
2022-10-28T16:17:09.571Z,21.00
2022-10-28T16:19:39.079Z,20.90
2022-10-28T16:22:13.085Z,20.70
2022-10-28T16:24:40.393Z,20.50
2022-10-28T16:27:19.084Z,20.40
2022-10-28T16:29:45.887Z,20.20
2022-10-28T16:32:42.863Z,20.10
2022-10-28T16:35:34.388Z,19.80
2022-10-28T16:38:01.159Z,19.60
2022-10-28T16:43:16.757Z,19.40
2022-10-28T16:45:58.212Z,19.30
2022-10-28T16:48:31.065Z,19.20
2022-10-28T16:50:58.229Z,19.20
2022-10-28T16:53:42.599Z,19.10
2022-10-28T16:56:14.375Z,18.90
2022-10-28T16:58:42.854Z,18.80
2022-10-28T17:01:20.011Z,18.80
2022-10-28T17:03:46.685Z,18.70
2022-10-28T17:06:13.265Z,18.70
2022-10-28T17:09:02.372Z,18.60
2022-10-28T17:13:58.263Z,18.60
2022-10-28T17:16:28.824Z,18.60
2022-10-28T17:19:03.549Z,18.50
2022-10-28T17:21:33.942Z,18.50
2022-10-28T17:24:05.277Z,18.40
2022-10-28T17:26:32.243Z,18.40
2022-10-28T17:29:02.077Z,18.40
2022-10-28T17:31:29.511Z,18.40
2022-10-28T17:33:59.237Z,18.30
2022-10-28T17:36:30.083Z,18.30
2022-10-28T17:39:02.185Z,18.20
2022-10-28T17:41:28.593Z,18.20
2022-10-28T17:43:59.156Z,18.10
2022-10-28T17:46:28.521Z,18.00
2022-10-28T17:48:55.332Z,17.90
2022-10-28T17:51:24.308Z,17.90
2022-10-28T17:54:01.124Z,17.80
2022-10-28T17:56:27.544Z,17.70
2022-10-28T18:07:42.201Z,17.70
2022-10-28T18:10:10.309Z,17.50
2022-10-28T18:12:36.760Z,17.40
2022-10-28T18:15:04.659Z,17.20
2022-10-28T18:17:31.207Z,17.00
2022-10-28T18:20:00.896Z,17.00
2022-10-28T18:22:31.175Z,16.90
2022-10-28T18:25:23.190Z,16.80
2022-10-28T18:27:50.519Z,16.70
2022-10-28T18:30:17.123Z,16.60
2022-10-28T18:32:43.684Z,16.60
2022-10-28T18:35:10.084Z,16.50
2022-10-28T18:37:37.417Z,16.40
2022-10-28T18:40:04.228Z,16.40
2022-10-28T18:42:35.630Z,16.40
2022-10-28T18:45:02.721Z,16.40
2022-10-28T18:47:33.281Z,16.30
2022-10-28T18:49:59.839Z,16.30
2022-10-28T18:52:28.798Z,16.40
2022-10-28T18:54:55.377Z,16.40
2022-10-28T18:57:24.144Z,16.40
2022-10-28T19:00:16.744Z,16.40
2022-10-28T19:02:47.284Z,16.50
2022-10-28T19:05:14.291Z,16.50
2022-10-28T19:07:46.291Z,16.50
2022-10-28T19:10:14.780Z,16.50
2022-10-28T19:12:52.795Z,16.50
2022-10-28T19:15:23.442Z,16.50
2022-10-28T19:17:51.255Z,16.50
2022-10-28T19:20:17.800Z,16.50
2022-10-28T19:22:46.553Z,16.40
2022-10-28T19:25:13.214Z,16.30
2022-10-28T19:27:42.796Z,16.20
2022-10-28T19:30:16.698Z,16.20
2022-10-28T19:32:49.395Z,16.10
2022-10-28T19:35:16.113Z,16.10
2022-10-28T19:37:42.613Z,16.00
2022-10-28T19:40:09.342Z,16.00
2022-10-28T19:42:56.110Z,15.90
2022-10-28T19:45:23.212Z,15.80
2022-10-28T19:50:39.912Z,15.60
2022-10-28T19:59:34.431Z,15.30
2022-10-28T20:02:14.450Z,15.20
2022-10-28T20:05:07.436Z,15.10
2022-10-28T20:07:44.106Z,15.20
2022-10-28T20:10:21.547Z,15.10
2022-10-28T20:12:55.298Z,15.20
2022-10-28T20:15:23.487Z,15.20
2022-10-28T20:17:50.227Z,15.20
2022-10-28T20:20:24.019Z,15.20
2022-10-28T20:22:52.701Z,15.20
2022-10-28T20:25:23.694Z,15.20
2022-10-28T20:28:01.309Z,15.30
2022-10-28T20:30:49.141Z,15.30
2022-10-28T20:34:01.158Z,15.30
2022-10-28T20:36:30.859Z,15.30
2022-10-28T20:38:59.416Z,15.30
2022-10-28T20:41:53.719Z,15.20
2022-10-28T20:47:17.669Z,15.20
2022-10-28T20:49:44.387Z,15.10
2022-10-28T20:52:17.950Z,15.10
2022-10-28T20:54:48.881Z,15.00
2022-10-28T20:57:22.474Z,14.90
2022-10-28T21:00:07.326Z,14.80
2022-10-28T21:02:48.902Z,14.70
2022-10-28T21:05:18.640Z,14.60
2022-10-28T21:07:47.099Z,14.50
2022-10-28T21:10:23.827Z,14.40
2022-10-28T21:12:51.870Z,14.40
2022-10-28T21:15:22.181Z,14.40
2022-10-28T21:18:06.199Z,14.40
2022-10-28T21:20:36.305Z,14.40
2022-10-28T21:23:03.914Z,14.50
2022-10-28T21:25:38.385Z,14.40
2022-10-28T21:28:12.774Z,14.40
2022-10-28T21:31:06.801Z,14.40
2022-10-28T21:33:37.961Z,14.40
2022-10-28T21:36:06.021Z,14.40
2022-10-28T21:38:36.092Z,14.40
2022-10-28T21:41:08.626Z,14.50
2022-10-28T21:43:40.838Z,14.50
2022-10-28T21:46:07.928Z,14.50
2022-10-28T21:48:36.811Z,14.50
2022-10-28T21:53:58.923Z,14.50
2022-10-28T21:56:31.639Z,14.50
2022-10-28T21:59:18.499Z,14.50
2022-10-28T22:01:51.331Z,14.50
2022-10-28T22:04:18.160Z,14.40
2022-10-28T22:07:10.876Z,14.40
2022-10-28T22:09:40.245Z,14.40
2022-10-28T22:12:08.363Z,14.30
2022-10-28T22:14:38.132Z,14.30
2022-10-28T22:17:12.597Z,14.20
2022-10-28T22:19:51.813Z,14.20
2022-10-28T22:22:38.614Z,14.10
2022-10-28T22:25:10.621Z,14.00
2022-10-28T22:27:37.563Z,13.90
2022-10-28T22:30:36.262Z,13.80
2022-10-28T22:33:09.573Z,13.70
2022-10-28T22:35:39.749Z,13.70
2022-10-28T22:38:06.636Z,13.60
2022-10-28T22:40:38.600Z,13.50
2022-10-28T22:43:13.583Z,13.50
2022-10-28T22:45:42.197Z,13.50
2022-10-28T22:48:12.076Z,13.40
2022-10-28T22:51:18.023Z,13.40
2022-10-28T22:54:23.014Z,13.40
2022-10-28T22:56:51.347Z,13.30
2022-10-28T22:59:23.824Z,13.20
2022-10-28T23:01:51.460Z,13.10
2022-10-28T23:04:39.734Z,13.10
2022-10-28T23:10:45.541Z,13.00
2022-10-28T23:13:16.949Z,13.00
2022-10-28T23:16:05.139Z,12.90
2022-10-28T23:18:34.048Z,12.90
2022-10-28T23:21:28.933Z,13.00
2022-10-28T23:23:58.646Z,13.00
2022-10-28T23:26:30.485Z,13.00
2022-10-28T23:28:58.236Z,13.10
2022-10-28T23:31:38.057Z,13.10
2022-10-28T23:34:31.941Z,13.10
2022-10-28T23:37:11.291Z,13.10
2022-10-28T23:39:45.450Z,13.10
2022-10-28T23:42:35.412Z,13.10
2022-10-28T23:45:06.402Z,13.00
2022-10-28T23:47:33.891Z,13.00
2022-10-28T23:50:02.886Z,13.00
2022-10-28T23:52:41.907Z,12.90
2022-10-28T23:55:10.161Z,12.90
2022-10-28T23:58:04.194Z,12.90
